sensor_id;sensor_type;location;lat;lon;timestamp;P1;durP1;ratioP1;P2;durP2;ratioP2
78312;SDS011;67568;47.438;21.408;2023-07-29T00:01:23;4.45;;;1.50;;
78312;SDS011;67568;47.438;21.408;2023-07-29T00:03:50;7.35;;;1.50;;
78312;SDS011;67568;47.438;21.408;2023-07-29T00:06:17;3.95;;;1.40;;
78312;SDS011;67568;47.438;21.408;2023-07-29T00:08:43;4.03;;;1.47;;
78312;SDS011;67568;47.438;21.408;2023-07-29T00:11:10;4.82;;;1.60;;
78312;SDS011;67568;47.438;21.408;2023-07-29T00:13:37;7.15;;;1.60;;
78312;SDS011;67568;47.438;21.408;2023-07-29T00:16:03;4.40;;;1.70;;
78312;SDS011;67568;47.438;21.408;2023-07-29T00:18:33;4.55;;;1.40;;
78312;SDS011;67568;47.438;21.408;2023-07-29T00:21:00;4.37;;;1.63;;
78312;SDS011;67568;47.438;21.408;2023-07-29T00:23:27;3.85;;;1.58;;
78312;SDS011;67568;47.438;21.408;2023-07-29T00:25:55;4.63;;;1.75;;
78312;SDS011;67568;47.438;21.408;2023-07-29T00:28:22;5.90;;;1.70;;
78312;SDS011;67568;47.438;21.408;2023-07-29T00:30:49;5.05;;;1.70;;
78312;SDS011;67568;47.438;21.408;2023-07-29T00:33:16;4.27;;;1.67;;
78312;SDS011;67568;47.438;21.408;2023-07-29T00:35:44;6.22;;;1.50;;
78312;SDS011;67568;47.438;21.408;2023-07-29T00:38:11;5.03;;;1.73;;
78312;SDS011;67568;47.438;21.408;2023-07-29T00:40:37;5.90;;;2.08;;
78312;SDS011;67568;47.438;21.408;2023-07-29T00:43:05;6.35;;;2.35;;
78312;SDS011;67568;47.438;21.408;2023-07-29T00:45:32;5.90;;;1.80;;
78312;SDS011;67568;47.438;21.408;2023-07-29T00:47:59;4.82;;;1.60;;
78312;SDS011;67568;47.438;21.408;2023-07-29T00:50:28;6.97;;;2.05;;
78312;SDS011;67568;47.438;21.408;2023-07-29T00:52:57;4.70;;;1.80;;
78312;SDS011;67568;47.438;21.408;2023-07-29T00:55:24;5.63;;;1.77;;
78312;SDS011;67568;47.438;21.408;2023-07-29T00:57:51;4.37;;;1.80;;
78312;SDS011;67568;47.438;21.408;2023-07-29T01:00:18;7.03;;;1.95;;
78312;SDS011;67568;47.438;21.408;2023-07-29T01:02:45;5.72;;;1.83;;
78312;SDS011;67568;47.438;21.408;2023-07-29T01:05:12;5.78;;;1.90;;
78312;SDS011;67568;47.438;21.408;2023-07-29T01:07:49;6.03;;;2.30;;
78312;SDS011;67568;47.438;21.408;2023-07-29T01:10:41;5.27;;;1.90;;
78312;SDS011;67568;47.438;21.408;2023-07-29T01:13:25;8.98;;;1.90;;
78312;SDS011;67568;47.438;21.408;2023-07-29T01:16:11;6.80;;;1.98;;
78312;SDS011;67568;47.438;21.408;2023-07-29T01:18:45;6.57;;;2.00;;
78312;SDS011;67568;47.438;21.408;2023-07-29T01:21:14;5.93;;;1.80;;
78312;SDS011;67568;47.438;21.408;2023-07-29T01:23:43;5.10;;;1.97;;
78312;SDS011;67568;47.438;21.408;2023-07-29T01:26:10;6.22;;;2.00;;
78312;SDS011;67568;47.438;21.408;2023-07-29T01:28:37;4.93;;;1.70;;
78312;SDS011;67568;47.438;21.408;2023-07-29T01:31:07;6.97;;;2.10;;
78312;SDS011;67568;47.438;21.408;2023-07-29T01:33:39;5.85;;;2.30;;
78312;SDS011;67568;47.438;21.408;2023-07-29T01:36:15;5.20;;;1.77;;
78312;SDS011;67568;47.438;21.408;2023-07-29T01:38:47;5.97;;;1.77;;
78312;SDS011;67568;47.438;21.408;2023-07-29T01:41:14;5.60;;;1.77;;
78312;SDS011;67568;47.438;21.408;2023-07-29T01:43:43;5.00;;;2.17;;
78312;SDS011;67568;47.438;21.408;2023-07-29T01:46:11;8.68;;;2.30;;
78312;SDS011;67568;47.438;21.408;2023-07-29T01:48:38;5.43;;;2.40;;
78312;SDS011;67568;47.438;21.408;2023-07-29T01:51:05;7.40;;;2.30;;
78312;SDS011;67568;47.438;21.408;2023-07-29T01:53:33;6.32;;;2.20;;
78312;SDS011;67568;47.438;21.408;2023-07-29T01:55:59;5.07;;;1.70;;
78312;SDS011;67568;47.438;21.408;2023-07-29T01:58:27;9.00;;;2.10;;
78312;SDS011;67568;47.438;21.408;2023-07-29T02:00:54;6.17;;;2.20;;
78312;SDS011;67568;47.438;21.408;2023-07-29T02:03:21;6.20;;;2.40;;
78312;SDS011;67568;47.438;21.408;2023-07-29T02:05:47;6.65;;;2.08;;
78312;SDS011;67568;47.438;21.408;2023-07-29T02:08:17;8.93;;;2.15;;
78312;SDS011;67568;47.438;21.408;2023-07-29T02:10:44;6.65;;;2.28;;
78312;SDS011;67568;47.438;21.408;2023-07-29T02:13:11;6.97;;;2.27;;
78312;SDS011;67568;47.438;21.408;2023-07-29T02:15:38;6.15;;;2.28;;
78312;SDS011;67568;47.438;21.408;2023-07-29T02:18:05;8.07;;;2.42;;
78312;SDS011;67568;47.438;21.408;2023-07-29T02:20:31;6.45;;;2.42;;
78312;SDS011;67568;47.438;21.408;2023-07-29T02:22:58;8.60;;;2.53;;
78312;SDS011;67568;47.438;21.408;2023-07-29T02:25:25;8.83;;;2.43;;
78312;SDS011;67568;47.438;21.408;2023-07-29T02:27:52;5.88;;;2.53;;
78312;SDS011;67568;47.438;21.408;2023-07-29T02:30:20;5.55;;;2.35;;
78312;SDS011;67568;47.438;21.408;2023-07-29T02:32:47;6.30;;;2.30;;
78312;SDS011;67568;47.438;21.408;2023-07-29T02:35:14;7.43;;;2.20;;
78312;SDS011;67568;47.438;21.408;2023-07-29T02:37:41;6.80;;;2.33;;
78312;SDS011;67568;47.438;21.408;2023-07-29T02:40:10;5.95;;;2.50;;
78312;SDS011;67568;47.438;21.408;2023-07-29T02:42:37;6.00;;;2.90;;
78312;SDS011;67568;47.438;21.408;2023-07-29T02:45:04;8.55;;;2.50;;
78312;SDS011;67568;47.438;21.408;2023-07-29T02:47:31;6.63;;;2.70;;
78312;SDS011;67568;47.438;21.408;2023-07-29T02:49:58;6.10;;;2.33;;
78312;SDS011;67568;47.438;21.408;2023-07-29T02:52:25;7.18;;;2.60;;
78312;SDS011;67568;47.438;21.408;2023-07-29T02:54:51;5.15;;;2.35;;
78312;SDS011;67568;47.438;21.408;2023-07-29T02:57:18;6.38;;;2.50;;
78312;SDS011;67568;47.438;21.408;2023-07-29T02:59:45;8.13;;;2.47;;
78312;SDS011;67568;47.438;21.408;2023-07-29T03:02:12;7.10;;;2.53;;
78312;SDS011;67568;47.438;21.408;2023-07-29T03:04:39;7.47;;;2.80;;
78312;SDS011;67568;47.438;21.408;2023-07-29T03:07:05;4.75;;;2.35;;
78312;SDS011;67568;47.438;21.408;2023-07-29T03:09:34;6.32;;;2.50;;
78312;SDS011;67568;47.438;21.408;2023-07-29T03:12:02;6.78;;;2.33;;
78312;SDS011;67568;47.438;21.408;2023-07-29T03:14:29;5.93;;;2.47;;
78312;SDS011;67568;47.438;21.408;2023-07-29T03:16:56;5.72;;;2.33;;
78312;SDS011;67568;47.438;21.408;2023-07-29T03:19:23;7.10;;;2.70;;
78312;SDS011;67568;47.438;21.408;2023-07-29T03:21:49;7.03;;;2.50;;
78312;SDS011;67568;47.438;21.408;2023-07-29T03:24:16;7.20;;;2.67;;
78312;SDS011;67568;47.438;21.408;2023-07-29T03:26:46;6.50;;;2.40;;
78312;SDS011;67568;47.438;21.408;2023-07-29T03:29:12;7.25;;;2.70;;
78312;SDS011;67568;47.438;21.408;2023-07-29T03:31:39;8.32;;;2.92;;
78312;SDS011;67568;47.438;21.408;2023-07-29T03:34:06;10.50;;;2.65;;
78312;SDS011;67568;47.438;21.408;2023-07-29T03:36:33;6.72;;;2.50;;
78312;SDS011;67568;47.438;21.408;2023-07-29T03:39:00;8.33;;;3.13;;
78312;SDS011;67568;47.438;21.408;2023-07-29T03:41:27;7.93;;;3.15;;
78312;SDS011;67568;47.438;21.408;2023-07-29T03:43:54;7.95;;;2.90;;
78312;SDS011;67568;47.438;21.408;2023-07-29T03:46:20;10.13;;;3.25;;
78312;SDS011;67568;47.438;21.408;2023-07-29T03:48:47;6.65;;;2.90;;
78312;SDS011;67568;47.438;21.408;2023-07-29T03:51:14;7.53;;;3.53;;
78312;SDS011;67568;47.438;21.408;2023-07-29T03:53:41;7.40;;;3.60;;
78312;SDS011;67568;47.438;21.408;2023-07-29T03:56:08;9.63;;;3.55;;
78312;SDS011;67568;47.438;21.408;2023-07-29T03:58:35;11.57;;;3.55;;
78312;SDS011;67568;47.438;21.408;2023-07-29T04:01:01;8.20;;;3.58;;
78312;SDS011;67568;47.438;21.408;2023-07-29T04:03:29;7.07;;;3.40;;
78312;SDS011;67568;47.438;21.408;2023-07-29T04:05:56;8.38;;;3.70;;
78312;SDS011;67568;47.438;21.408;2023-07-29T04:08:22;9.55;;;3.50;;
78312;SDS011;67568;47.438;21.408;2023-07-29T04:10:49;8.15;;;3.55;;
78312;SDS011;67568;47.438;21.408;2023-07-29T04:13:16;8.45;;;3.80;;
78312;SDS011;67568;47.438;21.408;2023-07-29T04:15:43;19.33;;;5.60;;
78312;SDS011;67568;47.438;21.408;2023-07-29T04:18:10;7.35;;;3.95;;
78312;SDS011;67568;47.438;21.408;2023-07-29T04:20:37;7.38;;;3.55;;
78312;SDS011;67568;47.438;21.408;2023-07-29T04:23:04;11.10;;;3.35;;
78312;SDS011;67568;47.438;21.408;2023-07-29T04:25:31;8.40;;;3.85;;
78312;SDS011;67568;47.438;21.408;2023-07-29T04:27:57;7.60;;;3.77;;
78312;SDS011;67568;47.438;21.408;2023-07-29T04:30:24;9.05;;;3.83;;
78312;SDS011;67568;47.438;21.408;2023-07-29T04:32:51;9.30;;;4.00;;
78312;SDS011;67568;47.438;21.408;2023-07-29T04:35:18;7.53;;;3.90;;
78312;SDS011;67568;47.438;21.408;2023-07-29T04:37:45;7.93;;;4.22;;
78312;SDS011;67568;47.438;21.408;2023-07-29T04:40:11;10.23;;;4.00;;
78312;SDS011;67568;47.438;21.408;2023-07-29T04:42:38;7.65;;;3.92;;
78312;SDS011;67568;47.438;21.408;2023-07-29T04:45:05;7.90;;;4.03;;
78312;SDS011;67568;47.438;21.408;2023-07-29T04:47:32;11.63;;;3.90;;
78312;SDS011;67568;47.438;21.408;2023-07-29T04:49:59;7.38;;;3.97;;
78312;SDS011;67568;47.438;21.408;2023-07-29T04:52:26;11.13;;;4.60;;
78312;SDS011;67568;47.438;21.408;2023-07-29T04:54:52;9.05;;;3.80;;
78312;SDS011;67568;47.438;21.408;2023-07-29T04:57:19;8.50;;;4.03;;
78312;SDS011;67568;47.438;21.408;2023-07-29T04:59:46;7.68;;;4.10;;
78312;SDS011;67568;47.438;21.408;2023-07-29T05:02:12;7.72;;;4.05;;
78312;SDS011;67568;47.438;21.408;2023-07-29T05:04:50;10.07;;;3.90;;
78312;SDS011;67568;47.438;21.408;2023-07-29T05:07:17;7.68;;;4.20;;
78312;SDS011;67568;47.438;21.408;2023-07-29T05:09:44;8.45;;;3.75;;
78312;SDS011;67568;47.438;21.408;2023-07-29T05:12:11;7.60;;;4.07;;
78312;SDS011;67568;47.438;21.408;2023-07-29T05:14:38;8.32;;;3.92;;
78312;SDS011;67568;47.438;21.408;2023-07-29T05:17:05;11.70;;;4.10;;
78312;SDS011;67568;47.438;21.408;2023-07-29T05:19:32;8.63;;;4.30;;
78312;SDS011;67568;47.438;21.408;2023-07-29T05:21:59;8.93;;;3.70;;
78312;SDS011;67568;47.438;21.408;2023-07-29T05:24:25;10.85;;;4.05;;
78312;SDS011;67568;47.438;21.408;2023-07-29T05:26:52;6.60;;;3.40;;
78312;SDS011;67568;47.438;21.408;2023-07-29T05:29:19;11.03;;;4.10;;
78312;SDS011;67568;47.438;21.408;2023-07-29T05:31:46;8.15;;;4.20;;
78312;SDS011;67568;47.438;21.408;2023-07-29T05:34:12;9.63;;;4.13;;
78312;SDS011;67568;47.438;21.408;2023-07-29T05:36:39;9.05;;;4.00;;
78312;SDS011;67568;47.438;21.408;2023-07-29T05:39:06;7.93;;;4.40;;
78312;SDS011;67568;47.438;21.408;2023-07-29T05:41:32;10.73;;;4.47;;
78312;SDS011;67568;47.438;21.408;2023-07-29T05:44:02;7.10;;;4.07;;
78312;SDS011;67568;47.438;21.408;2023-07-29T05:46:28;9.20;;;4.90;;
78312;SDS011;67568;47.438;21.408;2023-07-29T05:48:55;9.00;;;4.05;;
78312;SDS011;67568;47.438;21.408;2023-07-29T05:51:22;9.73;;;4.40;;
78312;SDS011;67568;47.438;21.408;2023-07-29T05:53:49;12.03;;;5.00;;
78312;SDS011;67568;47.438;21.408;2023-07-29T05:56:16;9.55;;;4.57;;
78312;SDS011;67568;47.438;21.408;2023-07-29T05:58:42;8.80;;;4.53;;
78312;SDS011;67568;47.438;21.408;2023-07-29T06:01:09;9.50;;;4.47;;
78312;SDS011;67568;47.438;21.408;2023-07-29T06:03:37;9.25;;;4.65;;
78312;SDS011;67568;47.438;21.408;2023-07-29T06:06:04;9.80;;;4.70;;
78312;SDS011;67568;47.438;21.408;2023-07-29T06:08:30;7.35;;;4.07;;
78312;SDS011;67568;47.438;21.408;2023-07-29T06:10:57;10.35;;;4.50;;
78312;SDS011;67568;47.438;21.408;2023-07-29T06:13:24;9.95;;;4.40;;
78312;SDS011;67568;47.438;21.408;2023-07-29T06:15:50;9.68;;;4.50;;
78312;SDS011;67568;47.438;21.408;2023-07-29T06:18:17;10.27;;;4.03;;
78312;SDS011;67568;47.438;21.408;2023-07-29T06:20:44;9.85;;;4.60;;
78312;SDS011;67568;47.438;21.408;2023-07-29T06:23:11;8.40;;;3.80;;
78312;SDS011;67568;47.438;21.408;2023-07-29T06:25:41;15.77;;;4.57;;
78312;SDS011;67568;47.438;21.408;2023-07-29T06:28:09;6.97;;;3.90;;
78312;SDS011;67568;47.438;21.408;2023-07-29T06:30:36;8.17;;;4.10;;
78312;SDS011;67568;47.438;21.408;2023-07-29T06:33:02;7.63;;;3.83;;
78312;SDS011;67568;47.438;21.408;2023-07-29T06:35:29;15.15;;;4.13;;
78312;SDS011;67568;47.438;21.408;2023-07-29T06:37:56;7.95;;;3.70;;
78312;SDS011;67568;47.438;21.408;2023-07-29T06:40:23;9.15;;;4.22;;
78312;SDS011;67568;47.438;21.408;2023-07-29T06:42:52;8.63;;;4.00;;
78312;SDS011;67568;47.438;21.408;2023-07-29T06:45:19;7.40;;;3.53;;
78312;SDS011;67568;47.438;21.408;2023-07-29T06:47:46;7.28;;;4.00;;
78312;SDS011;67568;47.438;21.408;2023-07-29T06:50:12;9.45;;;3.97;;
78312;SDS011;67568;47.438;21.408;2023-07-29T06:52:39;8.68;;;3.97;;
78312;SDS011;67568;47.438;21.408;2023-07-29T06:55:06;8.57;;;3.90;;
78312;SDS011;67568;47.438;21.408;2023-07-29T06:57:33;9.07;;;3.53;;
78312;SDS011;67568;47.438;21.408;2023-07-29T07:00:00;9.57;;;3.65;;
78312;SDS011;67568;47.438;21.408;2023-07-29T07:02:27;8.35;;;3.63;;
78312;SDS011;67568;47.438;21.408;2023-07-29T07:04:55;10.55;;;3.25;;
78312;SDS011;67568;47.438;21.408;2023-07-29T07:07:22;10.67;;;3.30;;
78312;SDS011;67568;47.438;21.408;2023-07-29T07:09:49;8.52;;;3.72;;
78312;SDS011;67568;47.438;21.408;2023-07-29T07:12:18;8.30;;;3.30;;
78312;SDS011;67568;47.438;21.408;2023-07-29T07:14:45;8.82;;;3.47;;
78312;SDS011;67568;47.438;21.408;2023-07-29T07:17:14;9.05;;;3.33;;
78312;SDS011;67568;47.438;21.408;2023-07-29T07:19:46;7.40;;;3.93;;
78312;SDS011;67568;47.438;21.408;2023-07-29T07:22:13;10.55;;;3.72;;
78312;SDS011;67568;47.438;21.408;2023-07-29T07:24:39;10.00;;;3.33;;
78312;SDS011;67568;47.438;21.408;2023-07-29T07:27:06;7.32;;;3.55;;
78312;SDS011;67568;47.438;21.408;2023-07-29T07:29:33;7.68;;;3.35;;
78312;SDS011;67568;47.438;21.408;2023-07-29T07:31:59;8.97;;;3.17;;
78312;SDS011;67568;47.438;21.408;2023-07-29T07:34:26;8.98;;;3.13;;
78312;SDS011;67568;47.438;21.408;2023-07-29T07:36:53;8.43;;;3.30;;
78312;SDS011;67568;47.438;21.408;2023-07-29T07:39:20;7.30;;;3.53;;
78312;SDS011;67568;47.438;21.408;2023-07-29T07:41:46;8.73;;;3.20;;
78312;SDS011;67568;47.438;21.408;2023-07-29T07:44:13;9.53;;;2.77;;
78312;SDS011;67568;47.438;21.408;2023-07-29T07:46:40;7.85;;;2.60;;
78312;SDS011;67568;47.438;21.408;2023-07-29T07:49:07;9.50;;;3.47;;
78312;SDS011;67568;47.438;21.408;2023-07-29T07:51:34;6.43;;;3.17;;
78312;SDS011;67568;47.438;21.408;2023-07-29T07:54:00;7.70;;;3.65;;
78312;SDS011;67568;47.438;21.408;2023-07-29T07:56:27;7.00;;;3.07;;
78312;SDS011;67568;47.438;21.408;2023-07-29T07:58:54;6.88;;;3.10;;
78312;SDS011;67568;47.438;21.408;2023-07-29T08:01:23;6.45;;;3.08;;
78312;SDS011;67568;47.438;21.408;2023-07-29T08:03:50;8.13;;;3.30;;
78312;SDS011;67568;47.438;21.408;2023-07-29T08:06:17;6.78;;;3.10;;
78312;SDS011;67568;47.438;21.408;2023-07-29T08:08:44;12.30;;;3.10;;
78312;SDS011;67568;47.438;21.408;2023-07-29T08:11:11;9.88;;;3.13;;
78312;SDS011;67568;47.438;21.408;2023-07-29T08:13:38;6.03;;;2.97;;
78312;SDS011;67568;47.438;21.408;2023-07-29T08:16:04;6.30;;;2.95;;
78312;SDS011;67568;47.438;21.408;2023-07-29T08:18:31;8.60;;;2.90;;
78312;SDS011;67568;47.438;21.408;2023-07-29T08:20:58;6.20;;;2.70;;
78312;SDS011;67568;47.438;21.408;2023-07-29T08:23:26;5.68;;;2.40;;
78312;SDS011;67568;47.438;21.408;2023-07-29T08:25:54;5.82;;;2.53;;
78312;SDS011;67568;47.438;21.408;2023-07-29T08:28:22;7.28;;;2.90;;
78312;SDS011;67568;47.438;21.408;2023-07-29T08:30:49;8.35;;;3.10;;
78312;SDS011;67568;47.438;21.408;2023-07-29T08:33:17;7.07;;;2.40;;
78312;SDS011;67568;47.438;21.408;2023-07-29T08:35:44;5.65;;;2.50;;
78312;SDS011;67568;47.438;21.408;2023-07-29T08:38:11;8.05;;;2.60;;
78312;SDS011;67568;47.438;21.408;2023-07-29T08:40:41;8.20;;;2.60;;
78312;SDS011;67568;47.438;21.408;2023-07-29T08:43:11;8.25;;;2.90;;
78312;SDS011;67568;47.438;21.408;2023-07-29T08:45:40;6.13;;;2.23;;
78312;SDS011;67568;47.438;21.408;2023-07-29T08:48:10;5.82;;;2.58;;
78312;SDS011;67568;47.438;21.408;2023-07-29T08:50:37;7.53;;;2.83;;
78312;SDS011;67568;47.438;21.408;2023-07-29T08:53:04;6.68;;;2.40;;
78312;SDS011;67568;47.438;21.408;2023-07-29T08:55:31;6.97;;;2.65;;
78312;SDS011;67568;47.438;21.408;2023-07-29T08:57:59;7.03;;;2.33;;
78312;SDS011;67568;47.438;21.408;2023-07-29T09:00:27;5.80;;;2.28;;
78312;SDS011;67568;47.438;21.408;2023-07-29T09:02:54;7.60;;;2.33;;
78312;SDS011;67568;47.438;21.408;2023-07-29T09:05:21;7.97;;;2.78;;
78312;SDS011;67568;47.438;21.408;2023-07-29T09:07:48;7.03;;;2.60;;
78312;SDS011;67568;47.438;21.408;2023-07-29T09:10:23;8.90;;;2.60;;
78312;SDS011;67568;47.438;21.408;2023-07-29T09:12:54;7.20;;;2.70;;
78312;SDS011;67568;47.438;21.408;2023-07-29T09:15:28;7.88;;;2.92;;
78312;SDS011;67568;47.438;21.408;2023-07-29T09:17:56;5.78;;;2.35;;
78312;SDS011;67568;47.438;21.408;2023-07-29T09:20:27;5.80;;;2.40;;
78312;SDS011;67568;47.438;21.408;2023-07-29T09:22:54;8.23;;;2.50;;
78312;SDS011;67568;47.438;21.408;2023-07-29T09:25:28;6.25;;;2.28;;
78312;SDS011;67568;47.438;21.408;2023-07-29T09:27:59;6.53;;;2.38;;
78312;SDS011;67568;47.438;21.408;2023-07-29T09:30:26;6.07;;;2.28;;
78312;SDS011;67568;47.438;21.408;2023-07-29T09:32:57;6.28;;;2.30;;
78312;SDS011;67568;47.438;21.408;2023-07-29T09:35:28;6.80;;;2.30;;
78312;SDS011;67568;47.438;21.408;2023-07-29T09:37:56;6.88;;;2.50;;
78312;SDS011;67568;47.438;21.408;2023-07-29T09:40:23;7.20;;;2.30;;
78312;SDS011;67568;47.438;21.408;2023-07-29T09:42:53;5.93;;;2.40;;
78312;SDS011;67568;47.438;21.408;2023-07-29T09:45:21;5.72;;;2.33;;
78312;SDS011;67568;47.438;21.408;2023-07-29T09:47:50;6.83;;;2.20;;
78312;SDS011;67568;47.438;21.408;2023-07-29T09:50:17;5.97;;;2.38;;
78312;SDS011;67568;47.438;21.408;2023-07-29T09:52:44;6.32;;;2.25;;
78312;SDS011;67568;47.438;21.408;2023-07-29T09:55:13;9.18;;;2.40;;
78312;SDS011;67568;47.438;21.408;2023-07-29T09:57:40;5.22;;;2.30;;
78312;SDS011;67568;47.438;21.408;2023-07-29T10:00:07;5.90;;;2.20;;
78312;SDS011;67568;47.438;21.408;2023-07-29T10:02:37;5.68;;;2.17;;
78312;SDS011;67568;47.438;21.408;2023-07-29T10:05:09;4.65;;;1.95;;
78312;SDS011;67568;47.438;21.408;2023-07-29T10:07:36;4.53;;;1.95;;
78312;SDS011;67568;47.438;21.408;2023-07-29T10:10:05;5.13;;;1.88;;
78312;SDS011;67568;47.438;21.408;2023-07-29T10:12:33;4.73;;;1.83;;
78312;SDS011;67568;47.438;21.408;2023-07-29T10:15:05;5.20;;;2.30;;
78312;SDS011;67568;47.438;21.408;2023-07-29T10:17:33;6.60;;;2.17;;
78312;SDS011;67568;47.438;21.408;2023-07-29T10:20:05;6.25;;;1.98;;
78312;SDS011;67568;47.438;21.408;2023-07-29T10:22:38;7.47;;;2.33;;
78312;SDS011;67568;47.438;21.408;2023-07-29T10:25:16;6.17;;;2.03;;
78312;SDS011;67568;47.438;21.408;2023-07-29T10:30:11;5.60;;;2.15;;
78312;SDS011;67568;47.438;21.408;2023-07-29T10:32:38;4.57;;;2.10;;
78312;SDS011;67568;47.438;21.408;2023-07-29T10:35:07;8.02;;;2.22;;
78312;SDS011;67568;47.438;21.408;2023-07-29T10:37:34;5.97;;;2.03;;
78312;SDS011;67568;47.438;21.408;2023-07-29T10:40:03;6.03;;;2.13;;
78312;SDS011;67568;47.438;21.408;2023-07-29T10:42:33;5.38;;;2.22;;
78312;SDS011;67568;47.438;21.408;2023-07-29T10:44:59;5.28;;;2.20;;
78312;SDS011;67568;47.438;21.408;2023-07-29T10:47:27;5.90;;;2.00;;
78312;SDS011;67568;47.438;21.408;2023-07-29T10:49:55;5.03;;;2.23;;
78312;SDS011;67568;47.438;21.408;2023-07-29T10:52:30;8.45;;;2.28;;
78312;SDS011;67568;47.438;21.408;2023-07-29T11:00:50;5.40;;;2.08;;
78312;SDS011;67568;47.438;21.408;2023-07-29T11:03:17;6.10;;;1.90;;
78312;SDS011;67568;47.438;21.408;2023-07-29T11:05:50;5.13;;;2.20;;
78312;SDS011;67568;47.438;21.408;2023-07-29T11:08:19;6.95;;;2.13;;
78312;SDS011;67568;47.438;21.408;2023-07-29T11:13:38;4.45;;;2.10;;
78312;SDS011;67568;47.438;21.408;2023-07-29T11:16:05;4.37;;;1.80;;
78312;SDS011;67568;47.438;21.408;2023-07-29T11:18:35;4.95;;;2.08;;
78312;SDS011;67568;47.438;21.408;2023-07-29T11:21:05;4.65;;;2.00;;
78312;SDS011;67568;47.438;21.408;2023-07-29T11:23:34;7.93;;;2.13;;
78312;SDS011;67568;47.438;21.408;2023-07-29T11:26:02;8.18;;;2.20;;
78312;SDS011;67568;47.438;21.408;2023-07-29T11:28:37;5.47;;;2.20;;
78312;SDS011;67568;47.438;21.408;2023-07-29T11:31:05;5.43;;;2.10;;
78312;SDS011;67568;47.438;21.408;2023-07-29T11:33:33;6.30;;;2.38;;
78312;SDS011;67568;47.438;21.408;2023-07-29T11:36:00;4.43;;;1.75;;
78312;SDS011;67568;47.438;21.408;2023-07-29T11:38:27;7.80;;;2.10;;
78312;SDS011;67568;47.438;21.408;2023-07-29T11:41:00;5.53;;;2.10;;
78312;SDS011;67568;47.438;21.408;2023-07-29T11:43:27;7.13;;;2.10;;
78312;SDS011;67568;47.438;21.408;2023-07-29T11:45:54;6.47;;;2.05;;
78312;SDS011;67568;47.438;21.408;2023-07-29T11:48:31;5.70;;;1.92;;
78312;SDS011;67568;47.438;21.408;2023-07-29T11:50:59;6.95;;;2.15;;
78312;SDS011;67568;47.438;21.408;2023-07-29T11:53:30;5.07;;;1.90;;
78312;SDS011;67568;47.438;21.408;2023-07-29T11:55:58;6.30;;;2.40;;
78312;SDS011;67568;47.438;21.408;2023-07-29T11:58:25;6.15;;;1.88;;
78312;SDS011;67568;47.438;21.408;2023-07-29T12:00:53;6.13;;;2.33;;
78312;SDS011;67568;47.438;21.408;2023-07-29T12:03:20;6.22;;;2.47;;
78312;SDS011;67568;47.438;21.408;2023-07-29T12:05:48;5.27;;;1.97;;
78312;SDS011;67568;47.438;21.408;2023-07-29T12:08:15;6.35;;;2.40;;
78312;SDS011;67568;47.438;21.408;2023-07-29T12:10:44;9.20;;;2.40;;
78312;SDS011;67568;47.438;21.408;2023-07-29T12:13:11;5.70;;;2.00;;
78312;SDS011;67568;47.438;21.408;2023-07-29T12:15:38;5.68;;;2.10;;
78312;SDS011;67568;47.438;21.408;2023-07-29T12:18:05;6.70;;;2.13;;
78312;SDS011;67568;47.438;21.408;2023-07-29T12:20:32;6.68;;;2.35;;
78312;SDS011;67568;47.438;21.408;2023-07-29T12:22:59;7.03;;;2.05;;
78312;SDS011;67568;47.438;21.408;2023-07-29T12:25:26;6.10;;;2.33;;
78312;SDS011;67568;47.438;21.408;2023-07-29T12:27:53;4.82;;;2.05;;
78312;SDS011;67568;47.438;21.408;2023-07-29T12:30:21;6.20;;;2.13;;
78312;SDS011;67568;47.438;21.408;2023-07-29T12:32:49;10.05;;;1.92;;
78312;SDS011;67568;47.438;21.408;2023-07-29T12:35:15;5.68;;;1.90;;
78312;SDS011;67568;47.438;21.408;2023-07-29T12:37:42;6.57;;;1.88;;
78312;SDS011;67568;47.438;21.408;2023-07-29T12:40:25;5.13;;;1.80;;
78312;SDS011;67568;47.438;21.408;2023-07-29T12:42:52;5.97;;;2.00;;
78312;SDS011;67568;47.438;21.408;2023-07-29T12:45:20;5.13;;;2.05;;
78312;SDS011;67568;47.438;21.408;2023-07-29T12:47:46;6.43;;;2.17;;
78312;SDS011;67568;47.438;21.408;2023-07-29T12:50:13;6.32;;;2.28;;
78312;SDS011;67568;47.438;21.408;2023-07-29T12:52:43;4.90;;;1.90;;
78312;SDS011;67568;47.438;21.408;2023-07-29T12:55:09;4.73;;;2.23;;
78312;SDS011;67568;47.438;21.408;2023-07-29T12:57:36;7.38;;;2.53;;
78312;SDS011;67568;47.438;21.408;2023-07-29T13:00:03;7.20;;;2.22;;
78312;SDS011;67568;47.438;21.408;2023-07-29T13:02:31;5.45;;;2.10;;
78312;SDS011;67568;47.438;21.408;2023-07-29T13:04:58;4.13;;;1.80;;
78312;SDS011;67568;47.438;21.408;2023-07-29T13:07:25;5.87;;;2.00;;
78312;SDS011;67568;47.438;21.408;2023-07-29T13:09:52;7.53;;;2.22;;
78312;SDS011;67568;47.438;21.408;2023-07-29T13:12:18;7.90;;;2.15;;
78312;SDS011;67568;47.438;21.408;2023-07-29T13:14:46;5.13;;;1.73;;
78312;SDS011;67568;47.438;21.408;2023-07-29T13:17:13;5.85;;;2.10;;
78312;SDS011;67568;47.438;21.408;2023-07-29T13:19:40;5.23;;;1.90;;
78312;SDS011;67568;47.438;21.408;2023-07-29T13:22:07;7.25;;;2.25;;
78312;SDS011;67568;47.438;21.408;2023-07-29T13:24:33;5.75;;;2.25;;
78312;SDS011;67568;47.438;21.408;2023-07-29T13:27:00;7.82;;;2.40;;
78312;SDS011;67568;47.438;21.408;2023-07-29T13:29:27;5.30;;;1.60;;
78312;SDS011;67568;47.438;21.408;2023-07-29T13:31:54;6.97;;;2.47;;
78312;SDS011;67568;47.438;21.408;2023-07-29T13:34:21;4.63;;;1.80;;
78312;SDS011;67568;47.438;21.408;2023-07-29T13:36:48;5.75;;;1.85;;
78312;SDS011;67568;47.438;21.408;2023-07-29T13:39:15;4.18;;;1.98;;
78312;SDS011;67568;47.438;21.408;2023-07-29T13:41:42;5.22;;;1.90;;
78312;SDS011;67568;47.438;21.408;2023-07-29T13:44:08;4.03;;;1.57;;
78312;SDS011;67568;47.438;21.408;2023-07-29T13:46:35;5.50;;;2.10;;
78312;SDS011;67568;47.438;21.408;2023-07-29T13:49:03;5.47;;;2.03;;
78312;SDS011;67568;47.438;21.408;2023-07-29T13:51:31;5.72;;;1.80;;
78312;SDS011;67568;47.438;21.408;2023-07-29T13:53:58;6.93;;;2.13;;
78312;SDS011;67568;47.438;21.408;2023-07-29T13:56:25;5.57;;;1.80;;
78312;SDS011;67568;47.438;21.408;2023-07-29T13:58:52;7.38;;;2.13;;
78312;SDS011;67568;47.438;21.408;2023-07-29T14:01:21;8.65;;;2.00;;
78312;SDS011;67568;47.438;21.408;2023-07-29T14:03:49;7.18;;;2.15;;
78312;SDS011;67568;47.438;21.408;2023-07-29T14:06:16;6.50;;;1.73;;
78312;SDS011;67568;47.438;21.408;2023-07-29T14:08:44;8.00;;;2.03;;
78312;SDS011;67568;47.438;21.408;2023-07-29T14:11:10;4.93;;;2.10;;
78312;SDS011;67568;47.438;21.408;2023-07-29T14:13:38;6.68;;;1.90;;
78312;SDS011;67568;47.438;21.408;2023-07-29T14:16:05;6.03;;;1.90;;
78312;SDS011;67568;47.438;21.408;2023-07-29T14:18:32;5.72;;;1.80;;
78312;SDS011;67568;47.438;21.408;2023-07-29T14:20:58;5.30;;;2.10;;
78312;SDS011;67568;47.438;21.408;2023-07-29T14:23:25;10.13;;;1.60;;
78312;SDS011;67568;47.438;21.408;2023-07-29T14:25:52;4.22;;;1.80;;
78312;SDS011;67568;47.438;21.408;2023-07-29T14:28:19;6.30;;;1.80;;
78312;SDS011;67568;47.438;21.408;2023-07-29T14:30:49;6.18;;;1.85;;
78312;SDS011;67568;47.438;21.408;2023-07-29T14:33:15;5.73;;;2.20;;
78312;SDS011;67568;47.438;21.408;2023-07-29T14:35:42;5.47;;;2.13;;
78312;SDS011;67568;47.438;21.408;2023-07-29T14:38:09;5.40;;;2.10;;
78312;SDS011;67568;47.438;21.408;2023-07-29T14:40:36;6.43;;;2.10;;
78312;SDS011;67568;47.438;21.408;2023-07-29T14:43:02;5.43;;;1.90;;
78312;SDS011;67568;47.438;21.408;2023-07-29T14:45:31;4.73;;;2.00;;
78312;SDS011;67568;47.438;21.408;2023-07-29T14:47:58;8.27;;;2.17;;